sensor_id;sensor_type;location;lat;lon;timestamp;pressure;altitude;pressure_sealevel;temperature;humidity
72428;BME280;60419;48.880;18.036;2023-08-07T00:00:20;98035.59;;;14.98;74.62
72428;BME280;60419;48.880;18.036;2023-08-07T00:03:05;98029.78;;;15.00;74.50
72428;BME280;60419;48.880;18.036;2023-08-07T00:05:50;98035.22;;;15.00;74.79
72428;BME280;60419;48.880;18.036;2023-08-07T00:08:40;98025.41;;;15.14;74.48
72428;BME280;60419;48.880;18.036;2023-08-07T00:11:25;98030.06;;;14.94;74.72
72428;BME280;60419;48.880;18.036;2023-08-07T00:14:12;98041.72;;;14.95;75.38
72428;BME280;60419;48.880;18.036;2023-08-07T00:16:58;98025.63;;;15.06;75.12
72428;BME280;60419;48.880;18.036;2023-08-07T00:19:43;98033.88;;;14.70;75.53
72428;BME280;60419;48.880;18.036;2023-08-07T00:22:29;98041.38;;;14.77;74.37
72428;BME280;60419;48.880;18.036;2023-08-07T00:25:14;98043.25;;;14.73;76.11
72428;BME280;60419;48.880;18.036;2023-08-07T00:27:59;98040.03;;;15.06;74.94
72428;BME280;60419;48.880;18.036;2023-08-07T00:30:45;98039.25;;;14.86;74.27
72428;BME280;60419;48.880;18.036;2023-08-07T00:33:30;98046.13;;;14.80;75.18
72428;BME280;60419;48.880;18.036;2023-08-07T00:36:15;98044.41;;;14.72;74.56
72428;BME280;60419;48.880;18.036;2023-08-07T00:39:02;98049.25;;;14.82;74.88
72428;BME280;60419;48.880;18.036;2023-08-07T00:41:48;98051.97;;;14.82;74.44
72428;BME280;60419;48.880;18.036;2023-08-07T00:44:34;98054.91;;;14.73;76.05
72428;BME280;60419;48.880;18.036;2023-08-07T00:47:20;98056.06;;;14.72;74.01
72428;BME280;60419;48.880;18.036;2023-08-07T00:50:07;98044.63;;;14.83;73.26
72428;BME280;60419;48.880;18.036;2023-08-07T00:52:52;98040.19;;;14.59;73.80
72428;BME280;60419;48.880;18.036;2023-08-07T00:55:38;98051.91;;;14.79;73.45
72428;BME280;60419;48.880;18.036;2023-08-07T00:58:23;98057.31;;;14.59;73.96
72428;BME280;60419;48.880;18.036;2023-08-07T01:01:09;98052.91;;;14.90;73.90
72428;BME280;60419;48.880;18.036;2023-08-07T01:03:54;98056.19;;;14.80;72.79
72428;BME280;60419;48.880;18.036;2023-08-07T01:06:40;98056.63;;;14.82;73.41
72428;BME280;60419;48.880;18.036;2023-08-07T01:09:26;98064.06;;;14.85;73.10
72428;BME280;60419;48.880;18.036;2023-08-07T01:12:28;98054.84;;;14.89;73.54
72428;BME280;60419;48.880;18.036;2023-08-07T01:15:20;98067.63;;;15.08;73.04
72428;BME280;60419;48.880;18.036;2023-08-07T01:18:07;98060.06;;;14.79;73.81
72428;BME280;60419;48.880;18.036;2023-08-07T01:20:53;98068.44;;;14.70;74.83
72428;BME280;60419;48.880;18.036;2023-08-07T01:23:38;98047.38;;;14.67;74.85
72428;BME280;60419;48.880;18.036;2023-08-07T01:26:24;98047.59;;;14.42;75.58
72428;BME280;60419;48.880;18.036;2023-08-07T01:29:14;98060.28;;;14.70;75.09
72428;BME280;60419;48.880;18.036;2023-08-07T01:32:03;98065.28;;;14.52;74.75
72428;BME280;60419;48.880;18.036;2023-08-07T01:34:54;98067.50;;;14.46;75.37
72428;BME280;60419;48.880;18.036;2023-08-07T01:37:41;98060.53;;;14.65;74.79
72428;BME280;60419;48.880;18.036;2023-08-07T01:40:27;98058.00;;;14.72;74.75
72428;BME280;60419;48.880;18.036;2023-08-07T01:43:13;98071.22;;;14.58;75.47
72428;BME280;60419;48.880;18.036;2023-08-07T01:45:58;98054.22;;;14.61;74.86
72428;BME280;60419;48.880;18.036;2023-08-07T01:48:44;98066.34;;;14.47;75.47
72428;BME280;60419;48.880;18.036;2023-08-07T01:51:30;98067.03;;;14.60;74.91
72428;BME280;60419;48.880;18.036;2023-08-07T01:54:15;98067.06;;;14.44;75.14
72428;BME280;60419;48.880;18.036;2023-08-07T01:57:01;98062.78;;;14.27;76.28
72428;BME280;60419;48.880;18.036;2023-08-07T01:59:46;98074.28;;;14.56;75.30
72428;BME280;60419;48.880;18.036;2023-08-07T02:02:31;98060.47;;;14.45;75.64
72428;BME280;60419;48.880;18.036;2023-08-07T02:05:17;98058.50;;;14.26;75.94
72428;BME280;60419;48.880;18.036;2023-08-07T02:08:02;98060.50;;;14.29;75.56
72428;BME280;60419;48.880;18.036;2023-08-07T02:10:48;98056.97;;;14.45;75.45
72428;BME280;60419;48.880;18.036;2023-08-07T02:13:34;98058.63;;;14.49;75.30
72428;BME280;60419;48.880;18.036;2023-08-07T02:16:19;98062.75;;;14.59;75.45
72428;BME280;60419;48.880;18.036;2023-08-07T02:19:04;98064.75;;;14.62;74.49
72428;BME280;60419;48.880;18.036;2023-08-07T02:21:50;98068.34;;;14.50;73.95
72428;BME280;60419;48.880;18.036;2023-08-07T02:24:35;98078.53;;;14.69;73.65
72428;BME280;60419;48.880;18.036;2023-08-07T02:27:20;98072.38;;;14.72;73.78
72428;BME280;60419;48.880;18.036;2023-08-07T02:30:06;98072.44;;;14.76;73.63
72428;BME280;60419;48.880;18.036;2023-08-07T02:32:52;98071.59;;;14.72;73.75
72428;BME280;60419;48.880;18.036;2023-08-07T02:35:37;98070.25;;;14.66;73.90
72428;BME280;60419;48.880;18.036;2023-08-07T02:38:24;98074.91;;;14.65;74.24
72428;BME280;60419;48.880;18.036;2023-08-07T02:41:10;98079.94;;;14.47;74.81
72428;BME280;60419;48.880;18.036;2023-08-07T02:43:55;98072.38;;;14.92;74.02
72428;BME280;60419;48.880;18.036;2023-08-07T02:46:41;98074.31;;;14.72;74.59
72428;BME280;60419;48.880;18.036;2023-08-07T02:49:26;98072.28;;;14.69;74.17
72428;BME280;60419;48.880;18.036;2023-08-07T02:52:12;98084.22;;;14.48;75.19
72428;BME280;60419;48.880;18.036;2023-08-07T02:54:57;98078.72;;;14.45;74.84
72428;BME280;60419;48.880;18.036;2023-08-07T02:57:43;98082.66;;;14.47;75.15
72428;BME280;60419;48.880;18.036;2023-08-07T03:00:28;98091.31;;;14.53;73.96
72428;BME280;60419;48.880;18.036;2023-08-07T03:03:14;98084.19;;;14.64;74.25
72428;BME280;60419;48.880;18.036;2023-08-07T03:05:59;98084.09;;;14.61;73.47
72428;BME280;60419;48.880;18.036;2023-08-07T03:08:45;98088.75;;;14.60;73.37
72428;BME280;60419;48.880;18.036;2023-08-07T03:11:30;98088.69;;;14.57;73.28
72428;BME280;60419;48.880;18.036;2023-08-07T03:14:16;98082.03;;;14.54;73.32
72428;BME280;60419;48.880;18.036;2023-08-07T03:17:01;98081.25;;;14.38;74.32
72428;BME280;60419;48.880;18.036;2023-08-07T03:19:47;98078.59;;;14.57;72.98
72428;BME280;60419;48.880;18.036;2023-08-07T03:22:32;98082.34;;;14.33;73.91
72428;BME280;60419;48.880;18.036;2023-08-07T03:25:17;98082.44;;;14.56;73.39
72428;BME280;60419;48.880;18.036;2023-08-07T03:28:03;98082.59;;;14.44;73.63
72428;BME280;60419;48.880;18.036;2023-08-07T03:30:48;98074.44;;;14.44;73.45
72428;BME280;60419;48.880;18.036;2023-08-07T03:33:34;98086.97;;;14.32;73.95
72428;BME280;60419;48.880;18.036;2023-08-07T03:36:19;98088.91;;;14.32;73.77
72428;BME280;60419;48.880;18.036;2023-08-07T03:39:05;98088.59;;;14.18;74.12
72428;BME280;60419;48.880;18.036;2023-08-07T03:41:50;98095.25;;;14.04;74.02
72428;BME280;60419;48.880;18.036;2023-08-07T03:44:36;98092.09;;;14.18;74.56
72428;BME280;60419;48.880;18.036;2023-08-07T03:47:21;98096.31;;;13.84;75.55
72428;BME280;60419;48.880;18.036;2023-08-07T03:50:07;98103.94;;;13.94;74.88
72428;BME280;60419;48.880;18.036;2023-08-07T03:52:52;98099.19;;;14.07;74.13
72428;BME280;60419;48.880;18.036;2023-08-07T03:55:38;98096.00;;;14.37;73.18
72428;BME280;60419;48.880;18.036;2023-08-07T03:58:23;98100.50;;;14.13;73.73
72428;BME280;60419;48.880;18.036;2023-08-07T04:01:08;98107.16;;;14.16;74.06
72428;BME280;60419;48.880;18.036;2023-08-07T04:03:55;98102.00;;;14.10;74.13
72428;BME280;60419;48.880;18.036;2023-08-07T04:06:40;98091.38;;;14.05;74.40
72428;BME280;60419;48.880;18.036;2023-08-07T04:09:26;98110.31;;;14.18;73.31
72428;BME280;60419;48.880;18.036;2023-08-07T04:12:11;98108.34;;;14.34;72.35
72428;BME280;60419;48.880;18.036;2023-08-07T04:14:57;98103.53;;;14.43;72.40
72428;BME280;60419;48.880;18.036;2023-08-07T04:17:42;98112.22;;;14.01;74.02
72428;BME280;60419;48.880;18.036;2023-08-07T04:20:27;98077.56;;;13.95;73.15
72428;BME280;60419;48.880;18.036;2023-08-07T04:23:13;98105.75;;;14.06;74.10
72428;BME280;60419;48.880;18.036;2023-08-07T04:25:59;98075.56;;;13.92;73.73
72428;BME280;60419;48.880;18.036;2023-08-07T04:28:44;98100.31;;;14.22;73.49
72428;BME280;60419;48.880;18.036;2023-08-07T04:31:30;98104.34;;;13.96;73.24
72428;BME280;60419;48.880;18.036;2023-08-07T04:34:19;98095.16;;;14.01;73.24
72428;BME280;60419;48.880;18.036;2023-08-07T04:37:04;98102.00;;;14.10;73.53
72428;BME280;60419;48.880;18.036;2023-08-07T04:39:51;98104.94;;;14.21;72.60
72428;BME280;60419;48.880;18.036;2023-08-07T04:42:37;98091.31;;;14.02;73.41
72428;BME280;60419;48.880;18.036;2023-08-07T04:45:22;98099.97;;;14.07;73.04
72428;BME280;60419;48.880;18.036;2023-08-07T04:48:08;98095.38;;;14.27;72.52
72428;BME280;60419;48.880;18.036;2023-08-07T04:50:53;98093.13;;;14.14;72.93
72428;BME280;60419;48.880;18.036;2023-08-07T04:53:39;98099.50;;;14.37;73.72
72428;BME280;60419;48.880;18.036;2023-08-07T04:56:24;98099.59;;;14.41;72.97
72428;BME280;60419;48.880;18.036;2023-08-07T04:59:10;98076.78;;;14.45;72.00
72428;BME280;60419;48.880;18.036;2023-08-07T05:01:56;98101.41;;;14.52;71.86
72428;BME280;60419;48.880;18.036;2023-08-07T05:04:41;98098.94;;;14.47;72.15
72428;BME280;60419;48.880;18.036;2023-08-07T05:07:27;98099.88;;;14.36;71.33
72428;BME280;60419;48.880;18.036;2023-08-07T05:10:12;98105.53;;;14.46;71.23
72428;BME280;60419;48.880;18.036;2023-08-07T05:12:57;98114.66;;;14.54;70.46
72428;BME280;60419;48.880;18.036;2023-08-07T05:15:43;98115.22;;;14.79;69.97
72428;BME280;60419;48.880;18.036;2023-08-07T05:18:28;98120.47;;;14.88;69.02
72428;BME280;60419;48.880;18.036;2023-08-07T05:21:13;98125.63;;;14.93;68.78
72428;BME280;60419;48.880;18.036;2023-08-07T05:23:59;98124.13;;;14.95;68.49
72428;BME280;60419;48.880;18.036;2023-08-07T05:26:44;98116.59;;;14.89;69.12
72428;BME280;60419;48.880;18.036;2023-08-07T05:29:30;98127.34;;;15.01;69.27
72428;BME280;60419;48.880;18.036;2023-08-07T05:32:15;98125.75;;;15.00;69.69
72428;BME280;60419;48.880;18.036;2023-08-07T05:35:00;98126.97;;;15.03;70.20
72428;BME280;60419;48.880;18.036;2023-08-07T05:37:46;98124.91;;;14.96;70.00
72428;BME280;60419;48.880;18.036;2023-08-07T05:40:31;98134.59;;;14.78;69.73
72428;BME280;60419;48.880;18.036;2023-08-07T05:43:17;98136.53;;;14.61;69.73
72428;BME280;60419;48.880;18.036;2023-08-07T05:46:02;98133.59;;;14.35;71.71
72428;BME280;60419;48.880;18.036;2023-08-07T05:48:47;98139.50;;;14.56;70.82
72428;BME280;60419;48.880;18.036;2023-08-07T05:51:33;98139.28;;;14.45;70.50
72428;BME280;60419;48.880;18.036;2023-08-07T05:54:18;98131.13;;;14.29;69.93
72428;BME280;60419;48.880;18.036;2023-08-07T05:57:04;98144.97;;;14.40;70.14
72428;BME280;60419;48.880;18.036;2023-08-07T05:59:49;98144.25;;;14.59;69.62
72428;BME280;60419;48.880;18.036;2023-08-07T06:02:35;98147.16;;;14.50;69.51
72428;BME280;60419;48.880;18.036;2023-08-07T06:05:20;98148.16;;;14.26;68.50
72428;BME280;60419;48.880;18.036;2023-08-07T06:08:05;98150.25;;;14.49;69.20
72428;BME280;60419;48.880;18.036;2023-08-07T06:10:51;98158.16;;;14.38;68.01
72428;BME280;60419;48.880;18.036;2023-08-07T06:13:36;98179.16;;;14.09;68.33
72428;BME280;60419;48.880;18.036;2023-08-07T06:16:22;98163.13;;;14.36;67.66
72428;BME280;60419;48.880;18.036;2023-08-07T06:19:07;98154.09;;;14.16;68.07
72428;BME280;60419;48.880;18.036;2023-08-07T06:21:53;98173.63;;;14.38;68.40
72428;BME280;60419;48.880;18.036;2023-08-07T06:24:39;98168.03;;;14.46;68.91
72428;BME280;60419;48.880;18.036;2023-08-07T06:27:24;98176.78;;;14.24;70.14
72428;BME280;60419;48.880;18.036;2023-08-07T06:30:10;98176.00;;;14.23;70.26
72428;BME280;60419;48.880;18.036;2023-08-07T06:32:56;98175.50;;;14.34;70.14
72428;BME280;60419;48.880;18.036;2023-08-07T06:35:41;98177.84;;;14.35;70.90
72428;BME280;60419;48.880;18.036;2023-08-07T06:38:28;98182.81;;;14.01;70.74
72428;BME280;60419;48.880;18.036;2023-08-07T06:41:13;98182.78;;;13.85;71.41
72428;BME280;60419;48.880;18.036;2023-08-07T06:43:58;98187.00;;;13.99;72.37
72428;BME280;60419;48.880;18.036;2023-08-07T06:46:44;98190.38;;;14.24;71.59
72428;BME280;60419;48.880;18.036;2023-08-07T06:49:29;98183.91;;;14.13;71.00
72428;BME280;60419;48.880;18.036;2023-08-07T06:52:16;98186.63;;;14.13;71.91
72428;BME280;60419;48.880;18.036;2023-08-07T06:55:02;98188.19;;;14.29;71.08
72428;BME280;60419;48.880;18.036;2023-08-07T06:57:47;98190.81;;;13.94;72.50
72428;BME280;60419;48.880;18.036;2023-08-07T07:00:33;98197.28;;;14.05;71.33
72428;BME280;60419;48.880;18.036;2023-08-07T07:03:20;98199.69;;;13.79;72.82
72428;BME280;60419;48.880;18.036;2023-08-07T07:06:05;98199.00;;;13.82;72.70
72428;BME280;60419;48.880;18.036;2023-08-07T07:08:51;98202.06;;;13.80;73.86
72428;BME280;60419;48.880;18.036;2023-08-07T07:11:39;98205.25;;;14.14;72.62
72428;BME280;60419;48.880;18.036;2023-08-07T07:14:24;98133.91;;;13.70;72.44
72428;BME280;60419;48.880;18.036;2023-08-07T07:17:09;98194.50;;;14.18;72.95
72428;BME280;60419;48.880;18.036;2023-08-07T07:19:55;98209.69;;;13.91;73.65
72428;BME280;60419;48.880;18.036;2023-08-07T07:22:42;98204.00;;;13.96;74.07
72428;BME280;60419;48.880;18.036;2023-08-07T07:25:27;98205.19;;;14.10;72.86
72428;BME280;60419;48.880;18.036;2023-08-07T07:28:12;98214.72;;;14.04;73.50
72428;BME280;60419;48.880;18.036;2023-08-07T07:30:58;98210.59;;;14.10;73.57
72428;BME280;60419;48.880;18.036;2023-08-07T07:33:43;98220.31;;;14.12;72.87
72428;BME280;60419;48.880;18.036;2023-08-07T07:36:29;98229.59;;;13.95;74.37
72428;BME280;60419;48.880;18.036;2023-08-07T07:39:14;98227.25;;;14.09;74.30
72428;BME280;60419;48.880;18.036;2023-08-07T07:41:59;98228.63;;;14.03;74.52
72428;BME280;60419;48.880;18.036;2023-08-07T07:44:45;98243.88;;;13.63;75.31
72428;BME280;60419;48.880;18.036;2023-08-07T07:47:31;98248.09;;;13.77;75.10
72428;BME280;60419;48.880;18.036;2023-08-07T07:50:17;98244.19;;;13.90;75.58
72428;BME280;60419;48.880;18.036;2023-08-07T07:53:02;98251.63;;;13.65;75.29
72428;BME280;60419;48.880;18.036;2023-08-07T07:55:47;98250.03;;;14.04;74.28
72428;BME280;60419;48.880;18.036;2023-08-07T07:58:33;98246.78;;;13.71;74.88
72428;BME280;60419;48.880;18.036;2023-08-07T08:01:18;98248.41;;;13.87;74.46
72428;BME280;60419;48.880;18.036;2023-08-07T08:04:04;98259.41;;;14.07;73.81
72428;BME280;60419;48.880;18.036;2023-08-07T08:06:49;98255.50;;;13.92;74.27
72428;BME280;60419;48.880;18.036;2023-08-07T08:09:35;98268.13;;;14.00;74.14
72428;BME280;60419;48.880;18.036;2023-08-07T08:12:21;98266.28;;;13.88;74.93
72428;BME280;60419;48.880;18.036;2023-08-07T08:15:07;98262.63;;;13.69;76.00
72428;BME280;60419;48.880;18.036;2023-08-07T08:17:52;98265.19;;;13.25;76.75
72428;BME280;60419;48.880;18.036;2023-08-07T08:20:38;98268.28;;;13.63;76.92
72428;BME280;60419;48.880;18.036;2023-08-07T08:23:23;98277.19;;;13.11;78.16
72428;BME280;60419;48.880;18.036;2023-08-07T08:26:09;98280.34;;;13.13;78.60
72428;BME280;60419;48.880;18.036;2023-08-07T08:28:54;98278.25;;;13.47;77.71
72428;BME280;60419;48.880;18.036;2023-08-07T08:31:40;98280.63;;;13.36;77.83
72428;BME280;60419;48.880;18.036;2023-08-07T08:34:26;98281.78;;;13.35;78.14
72428;BME280;60419;48.880;18.036;2023-08-07T08:37:11;98280.28;;;13.50;78.29
72428;BME280;60419;48.880;18.036;2023-08-07T08:39:57;98283.13;;;13.54;78.06
72428;BME280;60419;48.880;18.036;2023-08-07T08:42:46;98298.88;;;13.23;80.08
72428;BME280;60419;48.880;18.036;2023-08-07T08:45:32;98285.63;;;13.22;81.67
72428;BME280;60419;48.880;18.036;2023-08-07T08:48:20;98288.56;;;13.05;82.81
72428;BME280;60419;48.880;18.036;2023-08-07T08:51:08;98297.97;;;12.95;84.00
72428;BME280;60419;48.880;18.036;2023-08-07T08:53:56;98300.22;;;12.81;84.22
72428;BME280;60419;48.880;18.036;2023-08-07T08:56:42;98290.72;;;13.23;83.93
72428;BME280;60419;48.880;18.036;2023-08-07T08:59:28;98300.09;;;13.01;84.31
72428;BME280;60419;48.880;18.036;2023-08-07T09:02:13;98299.56;;;13.08;84.88
72428;BME280;60419;48.880;18.036;2023-08-07T09:04:59;98306.19;;;13.23;83.98
72428;BME280;60419;48.880;18.036;2023-08-07T09:07:44;98310.63;;;13.03;84.65
72428;BME280;60419;48.880;18.036;2023-08-07T09:10:32;98303.69;;;13.18;83.93
72428;BME280;60419;48.880;18.036;2023-08-07T09:13:23;98311.84;;;13.30;83.25
72428;BME280;60419;48.880;18.036;2023-08-07T09:16:09;98306.19;;;13.23;81.78
72428;BME280;60419;48.880;18.036;2023-08-07T09:18:55;98310.38;;;13.20;82.61
72428;BME280;60419;48.880;18.036;2023-08-07T09:21:41;98292.44;;;12.91;84.09
72428;BME280;60419;48.880;18.036;2023-08-07T09:24:26;98314.03;;;13.00;84.25
72428;BME280;60419;48.880;18.036;2023-08-07T09:27:12;98316.72;;;13.25;84.21
72428;BME280;60419;48.880;18.036;2023-08-07T09:29:57;98315.25;;;13.03;85.37
72428;BME280;60419;48.880;18.036;2023-08-07T09:32:43;98319.66;;;12.83;85.92
72428;BME280;60419;48.880;18.036;2023-08-07T09:35:30;98324.03;;;12.99;86.49
72428;BME280;60419;48.880;18.036;2023-08-07T09:38:22;98321.88;;;12.68;88.04
72428;BME280;60419;48.880;18.036;2023-08-07T09:41:08;98320.00;;;12.93;87.62
72428;BME280;60419;48.880;18.036;2023-08-07T09:43:53;98332.53;;;12.86;87.39
72428;BME280;60419;48.880;18.036;2023-08-07T09:46:42;98304.72;;;12.89;87.60
72428;BME280;60419;48.880;18.036;2023-08-07T09:49:32;98335.69;;;13.12;86.13
72428;BME280;60419;48.880;18.036;2023-08-07T09:52:18;98338.06;;;13.26;86.51
72428;BME280;60419;48.880;18.036;2023-08-07T09:55:03;98332.84;;;13.33;85.82
72428;BME280;60419;48.880;18.036;2023-08-07T09:57:50;98338.53;;;13.53;85.73
72428;BME280;60419;48.880;18.036;2023-08-07T10:00:36;98341.22;;;13.40;85.69
72428;BME280;60419;48.880;18.036;2023-08-07T10:03:22;98324.50;;;13.26;86.06
72428;BME280;60419;48.880;18.036;2023-08-07T10:06:08;98352.50;;;13.18;87.06
72428;BME280;60419;48.880;18.036;2023-08-07T10:08:54;98348.22;;;13.17;86.52
72428;BME280;60419;48.880;18.036;2023-08-07T10:11:41;98357.97;;;13.06;87.00
72428;BME280;60419;48.880;18.036;2023-08-07T10:14:26;98359.97;;;13.45;86.17
72428;BME280;60419;48.880;18.036;2023-08-07T10:17:12;98368.22;;;13.25;86.29
72428;BME280;60419;48.880;18.036;2023-08-07T10:19:58;98365.31;;;13.42;86.86
72428;BME280;60419;48.880;18.036;2023-08-07T10:22:44;98368.91;;;13.34;87.03
72428;BME280;60419;48.880;18.036;2023-08-07T10:25:30;98373.19;;;13.10;87.92
72428;BME280;60419;48.880;18.036;2023-08-07T10:28:18;98357.59;;;13.19;86.93
72428;BME280;60419;48.880;18.036;2023-08-07T10:31:06;98377.06;;;13.21;87.95
72428;BME280;60419;48.880;18.036;2023-08-07T10:33:52;98376.81;;;13.02;88.40
72428;BME280;60419;48.880;18.036;2023-08-07T10:36:39;98377.50;;;13.23;88.57
72428;BME280;60419;48.880;18.036;2023-08-07T10:39:25;98377.94;;;13.26;88.09
72428;BME280;60419;48.880;18.036;2023-08-07T10:42:11;98358.41;;;12.95;88.58
72428;BME280;60419;48.880;18.036;2023-08-07T10:45:01;98375.44;;;13.20;88.82
72428;BME280;60419;48.880;18.036;2023-08-07T10:50:56;98373.19;;;13.72;86.74
72428;BME280;60419;48.880;18.036;2023-08-07T10:53:44;98386.75;;;13.72;85.80
72428;BME280;60419;48.880;18.036;2023-08-07T10:56:33;98380.41;;;13.80;86.09
72428;BME280;60419;48.880;18.036;2023-08-07T10:59:19;98388.13;;;13.53;86.93
72428;BME280;60419;48.880;18.036;2023-08-07T11:02:07;98390.25;;;13.72;86.46
72428;BME280;60419;48.880;18.036;2023-08-07T11:04:56;98388.50;;;14.04;86.38
72428;BME280;60419;48.880;18.036;2023-08-07T11:07:42;98385.22;;;13.99;85.40
72428;BME280;60419;48.880;18.036;2023-08-07T11:10:29;98392.34;;;14.03;84.98
72428;BME280;60419;48.880;18.036;2023-08-07T11:13:15;98392.03;;;13.93;85.40
72428;BME280;60419;48.880;18.036;2023-08-07T11:16:02;98398.25;;;13.93;84.99
72428;BME280;60419;48.880;18.036;2023-08-07T11:18:48;98373.47;;;13.95;86.21
72428;BME280;60419;48.880;18.036;2023-08-07T11:21:34;98391.66;;;14.06;84.58
72428;BME280;60419;48.880;18.036;2023-08-07T11:24:21;98402.03;;;14.17;84.84
72428;BME280;60419;48.880;18.036;2023-08-07T11:27:07;98396.66;;;14.04;85.59
72428;BME280;60419;48.880;18.036;2023-08-07T11:29:53;98398.00;;;13.98;85.43
72428;BME280;60419;48.880;18.036;2023-08-07T11:32:38;98403.00;;;13.96;85.16
72428;BME280;60419;48.880;18.036;2023-08-07T11:35:24;98400.09;;;13.89;85.81
72428;BME280;60419;48.880;18.036;2023-08-07T11:38:09;98404.34;;;14.02;85.28
72428;BME280;60419;48.880;18.036;2023-08-07T11:40:57;98403.25;;;14.19;85.79
72428;BME280;60419;48.880;18.036;2023-08-07T11:43:43;98409.13;;;14.34;85.09
72428;BME280;60419;48.880;18.036;2023-08-07T11:46:28;98407.69;;;14.12;85.49
72428;BME280;60419;48.880;18.036;2023-08-07T11:49:14;98416.91;;;14.07;85.67
72428;BME280;60419;48.880;18.036;2023-08-07T11:51:59;98415.03;;;14.51;85.34
72428;BME280;60419;48.880;18.036;2023-08-07T11:54:48;98414.97;;;14.07;86.33
72428;BME280;60419;48.880;18.036;2023-08-07T11:57:34;98425.16;;;13.98;86.83
72428;BME280;60419;48.880;18.036;2023-08-07T12:00:20;98418.16;;;13.97;87.13
72428;BME280;60419;48.880;18.036;2023-08-07T12:03:32;98413.72;;;14.05;86.31
72428;BME280;60419;48.880;18.036;2023-08-07T12:06:19;98429.34;;;13.96;86.83
72428;BME280;60419;48.880;18.036;2023-08-07T12:09:05;98446.88;;;13.98;87.47
72428;BME280;60419;48.880;18.036;2023-08-07T12:11:56;98424.63;;;13.93;87.49
72428;BME280;60419;48.880;18.036;2023-08-07T12:14:42;98437.50;;;13.96;87.56
72428;BME280;60419;48.880;18.036;2023-08-07T12:17:31;98435.56;;;13.96;88.10
72428;BME280;60419;48.880;18.036;2023-08-07T12:20:16;98440.47;;;13.78;86.97
72428;BME280;60419;48.880;18.036;2023-08-07T12:23:02;98441.66;;;14.18;87.53
72428;BME280;60419;48.880;18.036;2023-08-07T12:25:47;98453.22;;;14.15;86.44
72428;BME280;60419;48.880;18.036;2023-08-07T12:28:36;98450.16;;;14.04;87.31
72428;BME280;60419;48.880;18.036;2023-08-07T12:31:22;98461.44;;;14.18;85.94
72428;BME280;60419;48.880;18.036;2023-08-07T12:34:07;98458.72;;;14.18;86.08
72428;BME280;60419;48.880;18.036;2023-08-07T12:36:54;98464.31;;;14.09;86.72
72428;BME280;60419;48.880;18.036;2023-08-07T12:39:39;98471.91;;;13.92;87.84
72428;BME280;60419;48.880;18.036;2023-08-07T12:42:24;98466.72;;;13.86;87.89
72428;BME280;60419;48.880;18.036;2023-08-07T12:45:10;98469.66;;;13.81;89.19
72428;BME280;60419;48.880;18.036;2023-08-07T12:47:55;98472.03;;;13.71;88.45
72428;BME280;60419;48.880;18.036;2023-08-07T12:50:41;98476.31;;;13.47;88.85
72428;BME280;60419;48.880;18.036;2023-08-07T12:53:26;98468.59;;;13.49;88.98
72428;BME280;60419;48.880;18.036;2023-08-07T12:56:12;98478.72;;;13.73;87.78
72428;BME280;60419;48.880;18.036;2023-08-07T12:58:57;98477.66;;;13.90;88.02
72428;BME280;60419;48.880;18.036;2023-08-07T13:01:43;98492.25;;;13.98;86.67
72428;BME280;60419;48.880;18.036;2023-08-07T13:04:28;98491.09;;;14.11;86.25
72428;BME280;60419;48.880;18.036;2023-08-07T13:07:13;98481.16;;;14.03;86.42
72428;BME280;60419;48.880;18.036;2023-08-07T13:09:59;98486.84;;;13.73;87.18
72428;BME280;60419;48.880;18.036;2023-08-07T13:12:47;98488.88;;;13.88;87.06
72428;BME280;60419;48.880;18.036;2023-08-07T13:15:32;98493.03;;;13.98;86.64
72428;BME280;60419;48.880;18.036;2023-08-07T13:18:18;98500.34;;;14.22;86.94
72428;BME280;60419;48.880;18.036;2023-08-07T13:21:03;98487.94;;;14.09;86.77
72428;BME280;60419;48.880;18.036;2023-08-07T13:23:49;98487.91;;;14.21;87.21
72428;BME280;60419;48.880;18.036;2023-08-07T13:26:34;98488.06;;;14.13;86.00
72428;BME280;60419;48.880;18.036;2023-08-07T13:29:19;98496.84;;;14.22;85.99
72428;BME280;60419;48.880;18.036;2023-08-07T13:32:06;98497.78;;;14.14;86.89
72428;BME280;60419;48.880;18.036;2023-08-07T13:34:54;98490.38;;;14.39;85.32
72428;BME280;60419;48.880;18.036;2023-08-07T13:37:40;98498.00;;;14.08;85.96
72428;BME280;60419;48.880;18.036;2023-08-07T13:40:25;98506.69;;;14.26;85.56
72428;BME280;60419;48.880;18.036;2023-08-07T13:43:10;98507.72;;;14.22;83.93
72428;BME280;60419;48.880;18.036;2023-08-07T13:45:56;98511.50;;;14.05;83.71
72428;BME280;60419;48.880;18.036;2023-08-07T13:48:41;98523.00;;;14.26;84.38
72428;BME280;60419;48.880;18.036;2023-08-07T13:51:26;98517.03;;;14.08;85.11
72428;BME280;60419;48.880;18.036;2023-08-07T13:54:13;98525.53;;;14.07;83.36
72428;BME280;60419;48.880;18.036;2023-08-07T13:56:58;98523.69;;;13.99;84.27
72428;BME280;60419;48.880;18.036;2023-08-07T13:59:43;98531.50;;;14.13;83.35
72428;BME280;60419;48.880;18.036;2023-08-07T14:02:29;98533.31;;;14.08;83.83
72428;BME280;60419;48.880;18.036;2023-08-07T14:05:15;98538.75;;;14.08;83.90
72428;BME280;60419;48.880;18.036;2023-08-07T14:08:00;98543.75;;;13.94;83.89
72428;BME280;60419;48.880;18.036;2023-08-07T14:10:47;98552.09;;;14.38;84.15
72428;BME280;60419;48.880;18.036;2023-08-07T14:13:33;98557.38;;;14.35;82.13
72428;BME280;60419;48.880;18.036;2023-08-07T14:16:18;98557.84;;;14.37;82.65
72428;BME280;60419;48.880;18.036;2023-08-07T14:19:04;98559.56;;;14.17;83.07
72428;BME280;60419;48.880;18.036;2023-08-07T14:21:50;98557.88;;;14.00;83.79
72428;BME280;60419;48.880;18.036;2023-08-07T14:24:35;98553.56;;;14.23;82.99
72428;BME280;60419;48.880;18.036;2023-08-07T14:27:20;98565.66;;;14.14;83.94
72428;BME280;60419;48.880;18.036;2023-08-07T14:30:06;98558.22;;;14.23;82.96